createdAt,value
2019-02-27T00:03:38.219Z,1.50
2019-02-27T00:08:44.367Z,1.20
2019-02-27T00:13:52.461Z,1.10
2019-02-27T00:18:58.894Z,1.00
2019-02-27T00:24:04.323Z,0.90
2019-02-27T00:29:09.173Z,0.80
2019-02-27T00:34:13.738Z,0.80
2019-02-27T00:39:18.629Z,0.80
2019-02-27T00:44:23.076Z,0.80
2019-02-27T00:49:29.868Z,0.70
2019-02-27T00:54:35.193Z,0.70
2019-02-27T00:59:40.182Z,0.60
2019-02-27T01:04:45.158Z,0.60
2019-02-27T01:09:50.647Z,0.60
2019-02-27T01:14:56.682Z,0.50
2019-02-27T01:20:01.659Z,0.50
2019-02-27T01:25:23.141Z,0.50
2019-02-27T01:30:28.383Z,0.40
2019-02-27T01:35:32.655Z,0.30
2019-02-27T01:40:37.034Z,0.30
2019-02-27T01:45:42.370Z,0.30
2019-02-27T01:50:47.774Z,0.50
2019-02-27T01:55:56.193Z,0.60
2019-02-27T02:00:59.326Z,0.70
2019-02-27T02:06:03.860Z,0.60
2019-02-27T02:11:08.346Z,0.60
2019-02-27T02:16:27.052Z,0.40
2019-02-27T02:21:59.705Z,0.20
2019-02-27T02:27:39.120Z,0.00
2019-02-27T02:33:18.347Z,-0.10
2019-02-27T02:38:41.686Z,-0.20
2019-02-27T02:44:23.349Z,-0.10
2019-02-27T02:49:51.731Z,-0.10
2019-02-27T02:55:12.014Z,0.00
2019-02-27T03:00:47.860Z,0.00
2019-02-27T03:06:36.123Z,0.00
2019-02-27T03:12:29.931Z,-0.10
2019-02-27T03:18:33.360Z,0.00
2019-02-27T03:24:14.922Z,0.00
2019-02-27T03:29:58.041Z,0.00
2019-02-27T03:35:46.605Z,0.00
2019-02-27T03:41:22.807Z,-0.10
2019-02-27T03:46:51.712Z,-0.20
2019-02-27T03:52:36.548Z,-0.30
2019-02-27T03:58:26.834Z,-0.50
2019-02-27T04:03:55.618Z,-0.50
2019-02-27T04:09:01.709Z,-0.40
2019-02-27T04:14:32.358Z,-0.40
2019-02-27T04:19:39.286Z,-0.40
2019-02-27T04:24:43.071Z,-0.50
2019-02-27T04:29:47.759Z,-0.70
2019-02-27T04:34:52.745Z,-0.90
2019-02-27T04:39:57.627Z,-0.90
2019-02-27T04:45:02.931Z,-1.00
2019-02-27T04:50:10.903Z,-1.10
2019-02-27T04:55:15.657Z,-1.20
2019-02-27T05:00:20.949Z,-1.20
2019-02-27T05:05:26.166Z,-1.20
2019-02-27T05:10:30.767Z,-1.10
2019-02-27T05:15:38.925Z,-1.20
2019-02-27T05:20:44.810Z,-1.20
2019-02-27T05:25:48.945Z,-1.20
2019-02-27T05:30:55.128Z,-1.20
2019-02-27T05:36:00.484Z,-1.30
2019-02-27T05:41:06.494Z,-1.30
2019-02-27T05:46:11.810Z,-1.30
2019-02-27T05:51:16.878Z,-1.30
2019-02-27T05:56:21.488Z,-1.30
2019-02-27T06:01:25.966Z,-1.40
2019-02-27T06:06:31.936Z,-1.40
2019-02-27T06:11:36.748Z,-1.30
2019-02-27T06:16:41.547Z,-1.20
2019-02-27T06:21:46.854Z,-1.30
2019-02-27T06:26:51.936Z,-1.30
2019-02-27T06:31:57.515Z,-1.00
2019-02-27T06:37:01.899Z,-0.80
2019-02-27T06:42:08.127Z,-0.70
2019-02-27T06:47:16.094Z,-0.70
2019-02-27T06:52:21.963Z,0.70
2019-02-27T06:57:29.155Z,4.50
2019-02-27T07:02:34.078Z,7.50
2019-02-27T07:07:38.830Z,9.90
2019-02-27T07:12:43.812Z,11.60
2019-02-27T07:17:48.488Z,12.70
2019-02-27T07:22:52.869Z,13.20
2019-02-27T07:28:00.013Z,14.20
2019-02-27T07:33:06.686Z,14.70
2019-02-27T07:38:10.650Z,14.80
2019-02-27T07:43:15.230Z,15.30
2019-02-27T07:48:19.876Z,16.40
2019-02-27T07:53:25.665Z,16.60
2019-02-27T07:58:33.786Z,16.80
2019-02-27T08:03:38.049Z,17.10
2019-02-27T08:08:42.565Z,17.10
2019-02-27T08:13:47.246Z,16.60
2019-02-27T08:18:51.918Z,16.40
2019-02-27T08:23:56.457Z,17.10
2019-02-27T08:29:01.919Z,16.90
2019-02-27T08:34:06.386Z,17.00
2019-02-27T08:39:10.708Z,16.60
2019-02-27T08:44:15.487Z,17.10
2019-02-27T08:49:24.157Z,17.00
2019-02-27T08:54:32.298Z,17.30
2019-02-27T09:04:50.860Z,17.80
2019-02-27T09:09:55.289Z,17.20
2019-02-27T09:15:00.039Z,16.70
2019-02-27T09:20:05.194Z,16.50
2019-02-27T09:25:13.535Z,16.50
2019-02-27T09:30:20.751Z,16.50
2019-02-27T09:35:26.445Z,17.60
2019-02-27T09:40:31.536Z,17.40
2019-02-27T09:45:36.030Z,17.50
2019-02-27T09:50:47.672Z,18.30
2019-02-27T09:55:53.430Z,18.10
2019-02-27T10:01:03.108Z,18.30
2019-02-27T10:06:08.789Z,18.20
2019-02-27T10:11:13.810Z,17.60
2019-02-27T10:16:18.900Z,16.70
2019-02-27T10:21:23.767Z,15.70
2019-02-27T10:26:29.128Z,15.20
2019-02-27T10:31:34.071Z,14.10
2019-02-27T10:36:39.357Z,14.10
2019-02-27T10:41:49.761Z,13.60
2019-02-27T10:46:52.552Z,13.90
2019-02-27T10:51:59.167Z,14.30
2019-02-27T10:57:05.989Z,14.60
2019-02-27T11:02:12.499Z,15.00
2019-02-27T11:07:17.901Z,15.00
2019-02-27T11:12:22.340Z,15.00
2019-02-27T11:17:26.865Z,15.30
2019-02-27T11:22:32.335Z,15.40
2019-02-27T11:27:38.974Z,15.70
2019-02-27T11:32:44.269Z,15.90
2019-02-27T11:37:48.935Z,16.20
2019-02-27T11:42:53.742Z,16.30
2019-02-27T11:47:58.724Z,16.30
2019-02-27T11:53:03.649Z,16.40
2019-02-27T11:58:09.325Z,16.70
2019-02-27T12:03:13.799Z,16.90
2019-02-27T12:08:18.842Z,16.90
2019-02-27T12:13:23.222Z,17.10
2019-02-27T12:18:27.941Z,17.20
2019-02-27T12:23:32.975Z,17.40
2019-02-27T12:28:37.610Z,17.40
2019-02-27T12:33:43.181Z,17.60
2019-02-27T12:38:47.549Z,17.70
2019-02-27T12:43:53.319Z,17.70
2019-02-27T12:48:58.938Z,17.60
2019-02-27T12:54:03.893Z,17.70
2019-02-27T12:59:09.062Z,18.10
2019-02-27T13:04:16.286Z,18.30
2019-02-27T13:09:26.128Z,18.30
2019-02-27T13:14:33.854Z,18.40
2019-02-27T13:19:45.065Z,18.40
2019-02-27T13:24:50.953Z,18.70
2019-02-27T13:30:05.495Z,18.70
2019-02-27T13:35:02.113Z,18.50
2019-02-27T13:40:12.565Z,18.60
2019-02-27T13:45:20.391Z,18.60
2019-02-27T13:50:26.792Z,18.50
2019-02-27T13:55:31.448Z,18.70
2019-02-27T14:00:36.665Z,18.90
2019-02-27T14:05:42.213Z,18.90
2019-02-27T14:10:47.290Z,18.90
2019-02-27T14:15:52.019Z,18.80
2019-02-27T14:20:59.006Z,18.70
2019-02-27T14:26:06.726Z,18.70
2019-02-27T14:31:10.887Z,18.80
2019-02-27T14:36:18.406Z,18.50
2019-02-27T14:41:25.030Z,18.60
2019-02-27T14:46:30.750Z,18.40
2019-02-27T14:51:41.178Z,18.40
2019-02-27T14:56:44.549Z,18.30
2019-02-27T15:01:49.454Z,18.20
2019-02-27T15:06:55.201Z,18.10
2019-02-27T15:11:59.749Z,18.00
2019-02-27T15:17:04.820Z,18.00
2019-02-27T15:22:10.176Z,17.80
2019-02-27T15:27:15.441Z,17.70
2019-02-27T15:32:26.833Z,17.70
2019-02-27T15:37:37.448Z,17.70
2019-02-27T15:42:42.735Z,17.80
2019-02-27T15:47:50.291Z,18.00
2019-02-27T15:52:54.837Z,17.90
2019-02-27T15:58:02.737Z,18.20
2019-02-27T16:03:10.676Z,18.70
2019-02-27T16:08:15.275Z,18.40
2019-02-27T16:13:22.635Z,17.60
2019-02-27T16:18:30.151Z,16.80
2019-02-27T16:23:37.478Z,16.30
2019-02-27T16:28:42.961Z,15.60
2019-02-27T16:33:48.103Z,15.00
2019-02-27T16:38:52.539Z,14.60
2019-02-27T16:43:57.385Z,14.10
2019-02-27T16:49:03.484Z,13.60
2019-02-27T16:54:09.120Z,13.20
2019-02-27T16:59:16.017Z,12.70
2019-02-27T17:04:20.613Z,12.20
2019-02-27T17:09:26.310Z,11.70
2019-02-27T17:14:31.709Z,11.20
2019-02-27T17:19:37.418Z,10.80
2019-02-27T17:24:43.039Z,10.40
2019-02-27T17:29:49.429Z,10.00
2019-02-27T17:34:54.854Z,9.60
2019-02-27T17:40:02.290Z,9.30
2019-02-27T17:45:10.045Z,9.00
2019-02-27T17:50:17.488Z,8.80
2019-02-27T17:55:22.685Z,8.60
2019-02-27T18:00:32.493Z,8.50
2019-02-27T18:05:37.628Z,8.40
2019-02-27T18:10:42.516Z,8.30
2019-02-27T18:15:47.430Z,8.10
2019-02-27T18:20:52.804Z,8.10
2019-02-27T18:25:59.955Z,8.30
2019-02-27T18:31:04.764Z,8.10
2019-02-27T18:36:09.778Z,7.80
2019-02-27T18:41:15.105Z,7.40
2019-02-27T18:46:24.808Z,7.00
2019-02-27T18:51:33.227Z,6.80
2019-02-27T18:56:40.281Z,6.80
2019-02-27T19:01:49.426Z,6.70
2019-02-27T19:06:54.086Z,6.50
2019-02-27T19:11:59.363Z,6.60
2019-02-27T19:17:04.650Z,6.90
2019-02-27T19:22:11.377Z,7.10
2019-02-27T19:27:18.353Z,7.10
2019-02-27T19:32:24.357Z,7.30
2019-02-27T19:37:30.411Z,7.20
2019-02-27T19:42:35.270Z,7.00
2019-02-27T19:47:41.485Z,6.90
2019-02-27T19:52:46.684Z,6.70
2019-02-27T19:58:07.786Z,6.60
2019-02-27T20:03:15.590Z,6.50
2019-02-27T20:08:29.720Z,6.20
2019-02-27T20:13:35.714Z,5.90
2019-02-27T20:18:43.473Z,5.90
2019-02-27T20:23:50.365Z,5.70
2019-02-27T20:28:55.787Z,5.40
2019-02-27T20:34:05.530Z,5.00
2019-02-27T20:39:10.608Z,4.80
2019-02-27T20:44:17.338Z,4.70
2019-02-27T20:49:23.038Z,4.50
2019-02-27T20:54:28.659Z,4.40
2019-02-27T20:59:33.620Z,4.50
2019-02-27T21:04:39.155Z,4.40
2019-02-27T21:09:45.189Z,4.30
2019-02-27T21:14:51.410Z,4.20
2019-02-27T21:19:55.829Z,4.00
2019-02-27T21:25:01.490Z,4.00
2019-02-27T21:30:08.551Z,4.00
2019-02-27T21:35:13.743Z,3.90
2019-02-27T21:40:18.481Z,3.80
2019-02-27T21:45:22.908Z,3.70
2019-02-27T21:50:28.189Z,3.70
2019-02-27T21:55:32.994Z,3.40
2019-02-27T22:00:37.287Z,3.40
2019-02-27T22:05:43.101Z,3.50
2019-02-27T22:10:53.148Z,3.40
2019-02-27T22:15:56.841Z,3.50
2019-02-27T22:21:01.751Z,3.70
2019-02-27T22:26:06.465Z,3.90
2019-02-27T22:31:13.618Z,3.80
2019-02-27T22:36:18.821Z,3.60
2019-02-27T22:41:25.894Z,3.50
2019-02-27T22:46:30.665Z,3.30
2019-02-27T22:51:35.684Z,3.00
2019-02-27T22:56:40.572Z,2.80
2019-02-27T23:01:51.459Z,2.50
2019-02-27T23:06:56.726Z,2.20
2019-02-27T23:12:02.056Z,2.30
2019-02-27T23:17:06.921Z,2.20
2019-02-27T23:22:12.050Z,2.20
2019-02-27T23:27:16.773Z,2.10
2019-02-27T23:32:21.217Z,2.00
2019-02-27T23:37:29.409Z,1.90
2019-02-27T23:42:32.560Z,1.80
2019-02-27T23:47:37.661Z,1.90
2019-02-27T23:52:42.237Z,2.40
2019-02-27T23:57:47.204Z,2.50
